createdAt,value
2023-01-19T00:01:30.900Z,10.33
2023-01-19T00:03:59.123Z,10.32
2023-01-19T00:06:28.691Z,10.21
2023-01-19T00:08:55.972Z,10.22
2023-01-19T00:11:25.327Z,10.18
2023-01-19T00:13:55.633Z,10.17
2023-01-19T00:16:25.313Z,10.18
2023-01-19T00:18:55.945Z,10.12
2023-01-19T00:21:22.961Z,9.98
2023-01-19T00:23:55.310Z,9.89
2023-01-19T00:26:24.412Z,9.89
2023-01-19T00:28:54.228Z,9.89
2023-01-19T00:31:24.403Z,9.88
2023-01-19T00:33:55.767Z,9.84
2023-01-19T00:36:24.711Z,9.76
2023-01-19T00:38:52.053Z,9.90
2023-01-19T00:41:41.004Z,9.91
2023-01-19T00:44:12.011Z,9.88
2023-01-19T00:46:41.925Z,9.92
2023-01-19T00:49:10.615Z,9.93
2023-01-19T00:51:37.527Z,9.94
2023-01-19T00:54:10.284Z,9.94
2023-01-19T00:56:38.187Z,9.97
2023-01-19T00:59:05.354Z,9.91
2023-01-19T01:01:45.240Z,9.89
2023-01-19T01:04:15.076Z,9.93
2023-01-19T01:06:42.014Z,9.94
2023-01-19T01:09:11.967Z,9.89
2023-01-19T01:11:39.921Z,9.85
2023-01-19T01:14:07.792Z,9.84
2023-01-19T01:16:34.670Z,9.87
2023-01-19T01:19:02.111Z,9.90
2023-01-19T01:21:30.500Z,9.89
2023-01-19T01:23:57.676Z,9.90
2023-01-19T01:26:26.988Z,9.90
2023-01-19T01:28:54.355Z,9.88
2023-01-19T01:31:21.372Z,9.90
2023-01-19T01:33:48.774Z,9.94
2023-01-19T01:36:15.772Z,10.01
2023-01-19T01:38:44.960Z,10.00
2023-01-19T01:41:11.993Z,10.10
2023-01-19T01:43:44.972Z,10.23
2023-01-19T01:46:15.377Z,10.34
2023-01-19T01:48:47.350Z,10.51
2023-01-19T01:51:26.240Z,10.61
2023-01-19T01:54:12.920Z,10.74
2023-01-19T01:56:43.445Z,10.82
2023-01-19T01:59:25.913Z,10.88
2023-01-19T02:02:12.966Z,10.91
2023-01-19T02:04:45.990Z,10.94
2023-01-19T02:07:34.899Z,11.00
2023-01-19T02:10:24.027Z,11.05
2023-01-19T02:13:18.940Z,11.09
2023-01-19T02:15:49.953Z,11.14
2023-01-19T02:18:17.272Z,11.18
2023-01-19T02:20:52.294Z,11.19
2023-01-19T02:23:30.102Z,11.16
2023-01-19T02:25:58.709Z,11.18
2023-01-19T02:28:27.135Z,11.22
2023-01-19T02:30:54.711Z,11.20
2023-01-19T02:33:21.950Z,11.17
2023-01-19T02:35:51.838Z,11.15
2023-01-19T02:38:20.478Z,11.12
2023-01-19T02:40:51.674Z,11.14
2023-01-19T02:43:20.198Z,11.22
2023-01-19T02:45:48.225Z,11.24
2023-01-19T02:48:17.989Z,11.25
2023-01-19T02:50:49.222Z,11.28
2023-01-19T02:53:51.431Z,11.33
2023-01-19T02:56:48.337Z,11.29
2023-01-19T02:59:30.553Z,11.26
2023-01-19T03:02:16.579Z,11.26
2023-01-19T03:05:00.140Z,11.27
2023-01-19T03:07:40.341Z,11.27
2023-01-19T03:10:15.657Z,11.31
2023-01-19T03:12:48.349Z,11.38
2023-01-19T03:15:22.330Z,11.38
2023-01-19T03:17:52.218Z,11.39
2023-01-19T03:20:24.688Z,11.42
2023-01-19T03:22:55.850Z,11.42
2023-01-19T03:25:24.810Z,11.42
2023-01-19T03:27:54.768Z,11.46
2023-01-19T03:30:30.675Z,11.50
2023-01-19T03:33:05.162Z,11.48
2023-01-19T03:35:35.732Z,11.54
2023-01-19T03:38:08.673Z,11.55
2023-01-19T03:40:48.683Z,11.62
2023-01-19T03:43:17.561Z,11.61
2023-01-19T03:45:49.046Z,11.64
2023-01-19T03:48:17.288Z,11.67
2023-01-19T03:50:44.404Z,11.60
2023-01-19T03:53:13.473Z,11.65
2023-01-19T03:55:42.583Z,11.57
2023-01-19T03:58:10.182Z,11.58
2023-01-19T04:00:37.957Z,11.55
2023-01-19T04:03:12.788Z,11.57
2023-01-19T04:05:39.799Z,11.61
2023-01-19T04:08:07.492Z,11.64
2023-01-19T04:10:34.590Z,11.54
2023-01-19T04:13:02.864Z,11.59
2023-01-19T04:15:30.964Z,11.65
2023-01-19T04:18:00.365Z,11.66
2023-01-19T04:20:28.897Z,11.70
2023-01-19T04:23:00.979Z,11.66
2023-01-19T04:25:29.716Z,11.68
2023-01-19T04:28:00.172Z,11.71
2023-01-19T04:30:27.711Z,11.69
2023-01-19T04:33:01.474Z,11.69
2023-01-19T04:35:30.066Z,11.65
2023-01-19T04:37:57.289Z,11.62
2023-01-19T04:40:24.530Z,11.59
2023-01-19T04:42:51.672Z,11.57
2023-01-19T04:45:18.787Z,11.54
2023-01-19T04:47:46.170Z,11.48
2023-01-19T04:50:13.104Z,11.51
2023-01-19T04:52:41.806Z,11.52
2023-01-19T04:55:09.814Z,11.52
2023-01-19T04:57:37.062Z,11.53
2023-01-19T05:00:07.489Z,11.54
2023-01-19T05:02:40.144Z,11.59
2023-01-19T05:05:12.445Z,11.57
2023-01-19T05:07:43.605Z,11.59
2023-01-19T05:10:11.984Z,11.62
2023-01-19T05:12:39.351Z,11.65
2023-01-19T05:15:08.516Z,11.61
2023-01-19T05:17:35.860Z,11.67
2023-01-19T05:20:03.708Z,11.70
2023-01-19T05:22:31.291Z,11.73
2023-01-19T05:24:59.777Z,11.73
2023-01-19T05:27:26.988Z,11.69
2023-01-19T05:29:53.889Z,11.74
2023-01-19T05:32:21.276Z,11.75
2023-01-19T05:34:49.319Z,11.75
2023-01-19T05:37:18.112Z,11.83
2023-01-19T05:39:44.990Z,11.82
2023-01-19T05:42:13.751Z,11.85
2023-01-19T05:44:40.781Z,11.86
2023-01-19T05:47:08.023Z,11.83
2023-01-19T05:49:35.935Z,11.79
2023-01-19T05:52:03.195Z,11.79
2023-01-19T05:54:31.437Z,12.34
2023-01-19T05:56:58.731Z,12.81
2023-01-19T05:59:27.021Z,13.18
2023-01-19T06:01:54.315Z,13.39
2023-01-19T06:04:21.626Z,13.54
2023-01-19T06:06:49.191Z,13.79
2023-01-19T06:09:20.707Z,13.84
2023-01-19T06:11:48.011Z,14.01
2023-01-19T06:14:15.226Z,13.95
2023-01-19T06:16:43.945Z,13.87
2023-01-19T06:19:11.246Z,12.79
2023-01-19T06:21:38.499Z,11.83
2023-01-19T06:24:06.180Z,10.84
2023-01-19T06:26:34.540Z,10.22
2023-01-19T06:29:03.275Z,9.85
2023-01-19T06:31:33.326Z,9.67
2023-01-19T06:34:02.978Z,9.70
2023-01-19T06:36:30.039Z,10.24
2023-01-19T06:38:56.980Z,10.29
2023-01-19T06:41:24.220Z,10.15
2023-01-19T06:43:51.387Z,10.32
2023-01-19T06:46:18.819Z,10.46
2023-01-19T06:48:45.774Z,10.13
2023-01-19T06:51:14.431Z,10.33
2023-01-19T06:53:41.303Z,10.56
2023-01-19T06:56:09.618Z,10.38
2023-01-19T06:58:37.062Z,10.31
2023-01-19T07:01:05.980Z,10.46
2023-01-19T07:03:34.086Z,10.28
2023-01-19T07:06:02.555Z,10.40
2023-01-19T07:08:30.916Z,10.40
2023-01-19T07:11:26.649Z,10.59
2023-01-19T07:13:51.537Z,10.79
2023-01-19T07:16:18.939Z,10.95
2023-01-19T07:18:48.409Z,11.16
2023-01-19T07:21:16.080Z,11.35
2023-01-19T07:23:47.765Z,11.47
2023-01-19T07:26:16.659Z,11.32
2023-01-19T07:28:43.601Z,11.27
2023-01-19T07:31:10.999Z,11.25
2023-01-19T07:33:38.747Z,11.24
2023-01-19T07:36:06.571Z,11.30
2023-01-19T07:38:33.617Z,11.27
2023-01-19T07:41:03.060Z,11.29
2023-01-19T07:43:30.767Z,11.37
2023-01-19T07:45:59.458Z,11.46
2023-01-19T07:48:26.901Z,11.59
2023-01-19T07:50:58.968Z,11.59
2023-01-19T07:53:25.913Z,11.53
2023-01-19T07:55:55.197Z,11.51
2023-01-19T07:58:23.927Z,11.54
2023-01-19T08:00:51.007Z,11.63
2023-01-19T08:03:20.278Z,11.63
2023-01-19T08:05:52.397Z,11.58
2023-01-19T08:08:20.185Z,11.60
2023-01-19T08:10:51.059Z,11.63
2023-01-19T08:13:18.695Z,11.70
2023-01-19T08:15:49.477Z,11.74
2023-01-19T08:18:16.654Z,11.79
2023-01-19T08:20:43.970Z,11.80
2023-01-19T08:23:13.257Z,11.83
2023-01-19T08:25:42.433Z,11.88
2023-01-19T08:28:10.533Z,11.95
2023-01-19T08:30:40.914Z,12.01
2023-01-19T08:33:09.319Z,11.98
2023-01-19T08:35:38.649Z,12.02
2023-01-19T08:38:07.981Z,12.10
2023-01-19T08:40:37.278Z,12.21
2023-01-19T08:43:07.765Z,12.32
2023-01-19T08:45:36.490Z,12.35
2023-01-19T08:48:06.341Z,12.42
2023-01-19T08:50:35.122Z,12.52
2023-01-19T08:53:03.945Z,12.62
2023-01-19T08:55:31.347Z,12.76
2023-01-19T08:58:00.186Z,12.84
2023-01-19T09:00:27.729Z,12.88
2023-01-19T09:02:55.015Z,12.91
2023-01-19T09:05:22.296Z,12.88
2023-01-19T09:07:51.759Z,12.99
2023-01-19T09:10:19.475Z,13.04
2023-01-19T09:12:46.562Z,13.06
2023-01-19T09:15:14.244Z,13.10
2023-01-19T09:17:42.364Z,13.18
2023-01-19T09:20:10.769Z,13.26
2023-01-19T09:22:39.642Z,13.23
2023-01-19T09:25:08.797Z,13.21
2023-01-19T09:27:36.066Z,13.17
2023-01-19T09:30:07.138Z,13.20
2023-01-19T09:32:34.132Z,13.35
2023-01-19T09:35:01.314Z,13.54
2023-01-19T09:37:28.403Z,13.68
2023-01-19T09:39:55.763Z,13.79
2023-01-19T09:42:42.575Z,13.85
2023-01-19T09:45:16.543Z,13.81
2023-01-19T09:47:45.354Z,13.77
2023-01-19T09:50:19.358Z,13.82
2023-01-19T09:52:54.023Z,13.84
2023-01-19T09:55:25.674Z,13.91
2023-01-19T09:57:54.381Z,13.93
2023-01-19T10:00:23.360Z,13.84
2023-01-19T10:03:00.213Z,13.85
2023-01-19T10:05:31.927Z,13.87
2023-01-19T10:08:19.709Z,13.87
2023-01-19T10:10:52.566Z,13.94
2023-01-19T10:13:31.821Z,13.92
2023-01-19T10:16:09.684Z,13.94
2023-01-19T10:18:47.038Z,13.90
2023-01-19T10:21:21.641Z,13.78
2023-01-19T10:23:52.209Z,13.70
2023-01-19T10:26:23.445Z,13.68
2023-01-19T10:28:57.707Z,13.82
2023-01-19T10:31:28.093Z,14.01
2023-01-19T10:33:55.256Z,14.02
2023-01-19T10:36:29.304Z,13.98
2023-01-19T10:38:56.353Z,14.02
2023-01-19T10:41:28.393Z,14.00
2023-01-19T10:44:02.942Z,14.04
2023-01-19T10:46:39.497Z,13.94
2023-01-19T10:49:07.150Z,13.89
2023-01-19T10:51:44.890Z,13.75
2023-01-19T10:54:13.438Z,13.74
2023-01-19T10:56:53.185Z,13.82
2023-01-19T10:59:36.620Z,13.78
2023-01-19T11:02:17.680Z,13.74
2023-01-19T11:04:48.961Z,13.73
2023-01-19T11:07:20.670Z,13.70
2023-01-19T11:09:48.596Z,13.76
2023-01-19T11:12:18.711Z,13.73
2023-01-19T11:14:48.981Z,13.75
2023-01-19T11:17:22.588Z,13.82
2023-01-19T11:19:59.070Z,13.89
2023-01-19T11:22:30.095Z,13.95
2023-01-19T11:25:02.123Z,13.95
2023-01-19T11:27:31.270Z,13.95
2023-01-19T11:30:09.789Z,14.04
2023-01-19T11:32:37.246Z,14.07
2023-01-19T11:35:31.560Z,14.20
2023-01-19T11:38:07.413Z,14.38
2023-01-19T11:40:35.761Z,14.41
2023-01-19T11:43:03.480Z,14.39
2023-01-19T11:45:34.734Z,14.48
2023-01-19T11:48:04.761Z,14.54
2023-01-19T11:50:35.187Z,14.65
2023-01-19T11:53:07.363Z,14.65
2023-01-19T11:55:40.821Z,14.61
2023-01-19T11:58:14.503Z,14.45
2023-01-19T12:00:46.401Z,14.48
2023-01-19T12:03:20.779Z,14.31
2023-01-19T12:05:52.174Z,14.10
2023-01-19T12:08:24.517Z,14.23
2023-01-19T12:10:55.926Z,14.32
2023-01-19T12:13:25.192Z,14.27
2023-01-19T12:15:57.923Z,14.31
2023-01-19T12:18:33.392Z,14.38
2023-01-19T12:21:02.817Z,14.40
2023-01-19T12:23:51.093Z,14.28
2023-01-19T12:26:37.381Z,14.27
2023-01-19T12:29:11.271Z,14.15
2023-01-19T12:31:40.728Z,13.88
2023-01-19T12:34:31.224Z,13.78
2023-01-19T12:37:02.713Z,13.80
2023-01-19T12:39:30.113Z,13.70
2023-01-19T12:42:14.767Z,13.61
2023-01-19T12:44:43.616Z,13.58
2023-01-19T12:47:24.106Z,13.58
2023-01-19T12:49:55.335Z,13.51
2023-01-19T12:52:27.175Z,13.49
2023-01-19T12:55:01.682Z,13.46
2023-01-19T12:57:35.812Z,13.35
2023-01-19T13:00:06.989Z,13.25
2023-01-19T13:02:54.045Z,13.14
2023-01-19T13:05:45.820Z,13.11
2023-01-19T13:08:21.517Z,13.07
2023-01-19T13:11:19.858Z,13.11
2023-01-19T13:14:25.340Z,13.28
2023-01-19T13:17:05.750Z,13.42
2023-01-19T13:19:44.947Z,13.40
2023-01-19T13:22:49.630Z,13.40
2023-01-19T13:25:27.875Z,13.53
2023-01-19T13:27:57.763Z,13.61
2023-01-19T13:30:27.596Z,13.62
2023-01-19T13:33:00.512Z,13.59
2023-01-19T13:35:29.321Z,13.65
2023-01-19T13:37:58.416Z,13.61
2023-01-19T13:40:32.745Z,13.56
2023-01-19T13:43:01.402Z,13.51
2023-01-19T13:45:33.320Z,13.48
2023-01-19T13:48:04.455Z,13.44
2023-01-19T13:50:35.627Z,13.36
2023-01-19T13:53:04.732Z,13.08
2023-01-19T13:55:31.941Z,12.78
2023-01-19T13:57:59.355Z,12.79
2023-01-19T14:00:29.074Z,12.73
2023-01-19T14:03:00.826Z,12.58
2023-01-19T14:05:30.177Z,12.42
2023-01-19T14:08:13.623Z,12.31
2023-01-19T14:10:42.814Z,12.25
2023-01-19T14:13:16.306Z,12.02
2023-01-19T14:15:44.684Z,11.82
2023-01-19T14:18:24.735Z,11.72
2023-01-19T14:20:54.220Z,11.61
2023-01-19T14:23:45.292Z,11.44
2023-01-19T14:26:42.456Z,10.90
2023-01-19T14:29:22.336Z,10.27
2023-01-19T14:31:53.870Z,9.88
2023-01-19T14:34:36.157Z,9.85
2023-01-19T14:37:05.362Z,9.71
2023-01-19T14:40:15.400Z,9.25
2023-01-19T14:42:47.719Z,9.30
2023-01-19T14:45:18.303Z,9.32
2023-01-19T14:47:52.607Z,9.06
2023-01-19T14:50:24.163Z,9.27
2023-01-19T14:52:56.386Z,9.16
2023-01-19T14:55:31.530Z,9.32
2023-01-19T14:57:58.448Z,9.54
2023-01-19T15:00:27.148Z,9.70
2023-01-19T15:02:54.122Z,9.84
2023-01-19T15:05:21.465Z,9.91
2023-01-19T15:07:48.584Z,9.94
2023-01-19T15:10:20.938Z,9.97
2023-01-19T15:12:50.924Z,9.98
2023-01-19T15:15:22.701Z,9.84
2023-01-19T15:17:50.359Z,9.73
2023-01-19T15:20:19.597Z,9.70
2023-01-19T15:22:47.251Z,9.64
2023-01-19T15:25:15.951Z,9.56
2023-01-19T15:27:43.974Z,9.43
2023-01-19T15:30:19.818Z,9.31
2023-01-19T15:32:47.186Z,9.23
2023-01-19T15:35:16.688Z,9.12
2023-01-19T15:37:43.899Z,9.03
2023-01-19T15:40:11.934Z,8.94
2023-01-19T15:42:39.103Z,8.93
2023-01-19T15:45:30.794Z,8.87
2023-01-19T15:47:57.951Z,8.74
2023-01-19T15:50:26.213Z,8.59
2023-01-19T15:52:53.450Z,8.52
2023-01-19T15:55:21.391Z,8.42
2023-01-19T15:57:48.870Z,8.32
2023-01-19T16:00:17.021Z,8.25
2023-01-19T16:02:45.823Z,8.14
2023-01-19T16:05:13.217Z,8.09
2023-01-19T16:07:40.400Z,8.06
2023-01-19T16:10:09.565Z,8.08
2023-01-19T16:12:36.997Z,8.12
2023-01-19T16:15:05.011Z,8.10
2023-01-19T16:17:32.124Z,8.06
2023-01-19T16:20:00.700Z,8.00
2023-01-19T16:22:27.578Z,7.94
2023-01-19T16:24:56.420Z,7.87
2023-01-19T16:27:23.450Z,7.85
2023-01-19T16:29:50.979Z,7.77
2023-01-19T16:32:18.251Z,7.63
2023-01-19T16:34:46.539Z,7.57
2023-01-19T16:37:15.012Z,7.55
2023-01-19T16:39:46.077Z,7.51
2023-01-19T16:42:13.106Z,7.45
2023-01-19T16:44:42.344Z,7.41
2023-01-19T16:47:12.087Z,7.36
2023-01-19T16:49:39.439Z,7.28
2023-01-19T16:52:09.363Z,7.25
2023-01-19T16:54:41.464Z,7.22
2023-01-19T16:57:11.670Z,7.06
2023-01-19T16:59:39.804Z,7.04
2023-01-19T17:02:11.406Z,6.98
2023-01-19T17:04:40.329Z,6.91
2023-01-19T17:07:07.248Z,6.90
2023-01-19T17:09:34.474Z,6.96
2023-01-19T17:12:04.365Z,6.97
2023-01-19T17:14:31.598Z,6.98
2023-01-19T17:16:59.704Z,6.97
2023-01-19T17:19:29.970Z,6.92
2023-01-19T17:21:56.838Z,6.85
2023-01-19T17:24:25.176Z,6.87
2023-01-19T17:26:52.126Z,6.90
2023-01-19T17:29:24.671Z,6.94
2023-01-19T17:31:58.357Z,7.01
2023-01-19T17:34:28.670Z,6.98
2023-01-19T17:37:02.668Z,6.99
2023-01-19T17:39:30.012Z,6.90
2023-01-19T17:41:57.122Z,6.85
2023-01-19T17:44:25.828Z,6.85
2023-01-19T17:46:52.735Z,6.82
2023-01-19T17:49:19.936Z,6.80
2023-01-19T17:51:51.851Z,6.69
2023-01-19T17:54:19.478Z,6.75
2023-01-19T17:56:46.380Z,6.94
2023-01-19T17:59:17.117Z,6.96
2023-01-19T18:01:46.506Z,6.91
2023-01-19T18:04:19.050Z,6.83
2023-01-19T18:06:50.111Z,6.77
2023-01-19T18:09:20.149Z,6.72
2023-01-19T18:11:47.120Z,6.67
2023-01-19T18:14:17.018Z,6.57
2023-01-19T18:16:45.542Z,6.68
2023-01-19T18:19:12.911Z,6.73
2023-01-19T18:21:42.203Z,6.69
2023-01-19T18:24:09.611Z,6.65
2023-01-19T18:26:42.549Z,6.61
2023-01-19T18:29:09.830Z,6.56
2023-01-19T18:31:36.914Z,6.50
2023-01-19T18:34:05.489Z,6.50
2023-01-19T18:36:34.146Z,6.56
2023-01-19T18:39:01.539Z,6.59
2023-01-19T18:41:29.916Z,6.64
2023-01-19T18:43:58.259Z,6.61
2023-01-19T18:46:25.723Z,6.65
2023-01-19T18:48:53.026Z,6.63
2023-01-19T18:51:21.308Z,6.66
2023-01-19T18:53:48.649Z,6.70
2023-01-19T18:56:16.507Z,6.70
2023-01-19T18:58:44.465Z,6.72
2023-01-19T19:01:20.597Z,6.69
2023-01-19T19:03:48.626Z,6.74
2023-01-19T19:06:16.965Z,6.72
2023-01-19T19:08:45.493Z,6.67
2023-01-19T19:11:14.186Z,6.76
2023-01-19T19:13:42.215Z,6.78
2023-01-19T19:16:11.430Z,6.81
2023-01-19T19:18:39.991Z,6.72
2023-01-19T19:21:09.535Z,6.65
2023-01-19T19:23:37.068Z,6.81
2023-01-19T19:26:07.239Z,6.79
2023-01-19T19:28:36.113Z,6.81
2023-01-19T19:31:05.439Z,6.78
2023-01-19T19:33:33.031Z,6.76
2023-01-19T19:36:00.759Z,6.78
2023-01-19T19:38:28.697Z,6.80
2023-01-19T19:40:59.261Z,6.76
2023-01-19T19:43:27.781Z,6.81
2023-01-19T19:45:59.473Z,6.78
2023-01-19T19:48:27.323Z,6.83
2023-01-19T19:51:00.246Z,6.77
2023-01-19T19:53:29.127Z,6.74
2023-01-19T19:55:58.633Z,6.68
2023-01-19T19:58:30.707Z,6.53
2023-01-19T20:00:58.095Z,6.75
2023-01-19T20:03:26.174Z,6.71
2023-01-19T20:05:53.320Z,6.67
2023-01-19T20:08:20.630Z,6.59
2023-01-19T20:10:47.542Z,6.61
2023-01-19T20:13:17.783Z,6.63
2023-01-19T20:15:46.238Z,6.63
2023-01-19T20:18:13.602Z,6.64
2023-01-19T20:20:40.609Z,6.64
2023-01-19T20:23:09.522Z,6.69
2023-01-19T20:25:39.734Z,6.70
2023-01-19T20:28:09.186Z,6.61
2023-01-19T20:30:36.135Z,6.64
2023-01-19T20:33:04.863Z,6.64
2023-01-19T20:35:34.985Z,6.66
2023-01-19T20:38:02.213Z,6.63
2023-01-19T20:40:29.233Z,6.61
2023-01-19T20:42:56.464Z,6.58
2023-01-19T20:45:23.479Z,6.52
2023-01-19T20:47:51.261Z,6.43
2023-01-19T20:50:19.771Z,6.40
2023-01-19T20:52:47.069Z,6.34
2023-01-19T20:55:14.825Z,6.30
2023-01-19T20:57:42.153Z,6.34
2023-01-19T21:00:10.728Z,6.26
2023-01-19T21:02:38.081Z,6.19
2023-01-19T21:05:06.041Z,6.19
2023-01-19T21:07:36.185Z,6.16
2023-01-19T21:10:03.925Z,6.03
2023-01-19T21:12:31.206Z,6.02
2023-01-19T21:14:59.996Z,6.04
2023-01-19T21:17:27.090Z,6.05
2023-01-19T21:19:54.054Z,6.03
2023-01-19T21:22:21.438Z,5.98
2023-01-19T21:24:49.674Z,6.00
2023-01-19T21:27:18.599Z,5.96
2023-01-19T21:29:47.401Z,5.94
2023-01-19T21:32:14.430Z,5.98
2023-01-19T21:34:42.827Z,5.90
2023-01-19T21:37:11.596Z,5.86
2023-01-19T21:39:38.562Z,5.90
2023-01-19T21:42:08.671Z,6.01
2023-01-19T21:44:35.981Z,6.09
2023-01-19T21:47:11.837Z,6.05
2023-01-19T21:49:41.298Z,6.07
2023-01-19T21:52:08.854Z,6.01
2023-01-19T21:54:35.796Z,5.93
2023-01-19T21:57:03.064Z,5.90
2023-01-19T21:59:31.338Z,5.89
2023-01-19T22:01:58.774Z,5.91
2023-01-19T22:04:25.944Z,6.01
2023-01-19T22:06:53.091Z,5.99
2023-01-19T22:09:19.924Z,5.94
2023-01-19T22:11:47.175Z,5.96
2023-01-19T22:14:14.081Z,5.93
2023-01-19T22:16:42.713Z,5.92
2023-01-19T22:19:12.930Z,5.87
2023-01-19T22:21:40.182Z,5.80
2023-01-19T22:24:08.081Z,5.75
2023-01-19T22:26:36.903Z,5.68
2023-01-19T22:29:06.088Z,5.61
2023-01-19T22:31:33.564Z,5.57
2023-01-19T22:34:01.985Z,5.60
2023-01-19T22:36:30.876Z,5.66
2023-01-19T22:38:59.397Z,5.61
2023-01-19T22:41:28.465Z,5.51
2023-01-19T22:43:57.346Z,5.49
2023-01-19T22:46:26.857Z,5.45
2023-01-19T22:48:54.484Z,5.61
2023-01-19T22:51:24.642Z,5.71
2023-01-19T22:53:54.203Z,5.68
2023-01-19T22:56:28.648Z,5.59
2023-01-19T22:58:59.437Z,5.72
2023-01-19T23:01:28.596Z,5.74
2023-01-19T23:03:56.094Z,5.66
2023-01-19T23:06:27.072Z,5.80
2023-01-19T23:08:55.358Z,5.82
2023-01-19T23:11:26.369Z,5.75
2023-01-19T23:13:53.659Z,5.75
2023-01-19T23:16:21.118Z,5.68
2023-01-19T23:18:48.092Z,5.63
2023-01-19T23:21:18.667Z,5.65
2023-01-19T23:23:47.195Z,5.69
2023-01-19T23:26:16.494Z,5.70
2023-01-19T23:28:44.269Z,5.71
2023-01-19T23:31:16.399Z,5.68
2023-01-19T23:33:44.455Z,5.64
2023-01-19T23:36:12.022Z,5.56
2023-01-19T23:38:39.019Z,5.52
2023-01-19T23:41:08.545Z,5.51
2023-01-19T23:43:35.579Z,5.57
2023-01-19T23:46:03.951Z,5.69
2023-01-19T23:48:30.914Z,5.77
2023-01-19T23:50:57.998Z,5.88
2023-01-19T23:53:24.898Z,5.89
2023-01-19T23:55:52.096Z,5.87
2023-01-19T23:58:20.490Z,5.87
